createdAt,value
2022-08-05T00:01:36.453Z,97396.16
2022-08-05T00:04:17.538Z,97394.59
2022-08-05T00:06:45.169Z,97387.53
2022-08-05T00:09:16.025Z,97392.97
2022-08-05T00:11:49.125Z,97397.84
2022-08-05T00:14:17.579Z,97396.25
2022-08-05T00:16:53.270Z,97394.00
2022-08-05T00:19:23.342Z,97392.38
2022-08-05T00:21:52.422Z,97397.38
2022-08-05T00:24:24.197Z,97393.81
2022-08-05T00:26:52.870Z,97384.84
2022-08-05T00:29:22.583Z,97386.47
2022-08-05T00:32:13.012Z,97381.81
2022-08-05T00:35:03.593Z,97374.91
2022-08-05T00:37:50.856Z,97380.13
2022-08-05T00:40:17.819Z,97389.13
2022-08-05T00:42:55.546Z,97377.88
2022-08-05T00:45:28.265Z,97381.75
2022-08-05T00:48:07.383Z,97375.59
2022-08-05T00:50:36.368Z,97377.88
2022-08-05T00:53:03.785Z,97372.41
2022-08-05T00:55:42.896Z,97373.91
2022-08-05T00:58:11.955Z,97372.31
2022-08-05T01:00:40.363Z,97375.03
2022-08-05T01:03:09.893Z,97375.25
2022-08-05T01:05:41.409Z,97379.09
2022-08-05T01:08:30.647Z,97377.47
2022-08-05T01:10:59.722Z,97376.03
2022-08-05T01:13:58.861Z,97365.91
2022-08-05T01:16:26.926Z,97371.38
2022-08-05T01:18:57.923Z,97366.56
2022-08-05T01:22:00.616Z,97362.56
2022-08-05T01:24:54.908Z,97363.19
2022-08-05T01:27:33.084Z,97362.53
2022-08-05T01:30:04.394Z,97368.44
2022-08-05T01:32:34.927Z,97366.88
2022-08-05T01:35:10.665Z,97365.38
2022-08-05T01:37:44.332Z,97365.38
2022-08-05T01:40:12.740Z,97365.38
2022-08-05T01:42:42.599Z,97363.00
2022-08-05T01:45:14.625Z,97364.59
2022-08-05T01:47:44.490Z,97364.16
2022-08-05T01:50:18.700Z,97362.53
2022-08-05T01:52:59.981Z,97364.47
2022-08-05T01:55:29.618Z,97365.47
2022-08-05T01:58:12.155Z,97361.44
2022-08-05T02:00:48.859Z,97365.47
2022-08-05T02:03:28.993Z,97354.41
2022-08-05T02:06:00.981Z,97354.56
2022-08-05T02:08:31.606Z,97361.44
2022-08-05T02:11:05.105Z,97364.97
2022-08-05T02:13:53.273Z,97365.47
2022-08-05T02:16:25.243Z,97356.94
2022-08-05T02:18:58.563Z,97355.16
2022-08-05T02:21:30.506Z,97359.16
2022-08-05T02:24:17.962Z,97360.41
2022-08-05T02:26:54.553Z,97356.06
2022-08-05T02:29:58.143Z,97360.84
2022-08-05T02:32:23.765Z,97358.47
2022-08-05T02:34:54.997Z,97364.25
2022-08-05T02:37:23.934Z,97363.13
2022-08-05T02:39:53.550Z,97361.53
2022-08-05T02:42:27.666Z,97364.69
2022-08-05T02:45:00.121Z,97365.38
2022-08-05T02:48:06.260Z,97363.13
2022-08-05T02:50:20.629Z,97363.78
2022-08-05T02:52:49.189Z,97356.56
2022-08-05T02:55:51.935Z,97364.78
2022-08-05T02:58:11.989Z,97366.53
2022-08-05T03:00:48.163Z,97359.28
2022-08-05T03:03:19.812Z,97358.94
2022-08-05T03:06:53.820Z,97359.28
2022-08-05T03:08:42.714Z,97352.09
2022-08-05T03:11:57.367Z,97358.66
2022-08-05T03:14:08.239Z,97349.31
2022-08-05T03:16:35.923Z,97360.66
2022-08-05T03:19:12.575Z,97356.00
2022-08-05T03:21:48.826Z,97362.47
2022-08-05T03:24:18.552Z,97348.72
2022-08-05T03:26:57.067Z,97349.50
2022-08-05T03:29:24.713Z,97345.19
2022-08-05T03:32:12.099Z,97344.41
2022-08-05T03:34:49.587Z,97344.56
2022-08-05T03:37:19.952Z,97342.34
2022-08-05T03:39:59.326Z,97343.69
2022-08-05T03:42:32.263Z,97337.78
2022-08-05T03:45:01.552Z,97336.38
2022-08-05T03:47:35.351Z,97339.41
2022-08-05T03:50:04.768Z,97334.44
2022-08-05T03:55:06.779Z,97334.13
2022-08-05T03:56:01.637Z,97336.66
2022-08-05T03:58:29.111Z,97344.34
2022-08-05T04:01:00.031Z,97338.50
2022-08-05T04:03:29.230Z,97345.22
2022-08-05T04:05:59.219Z,97348.63
2022-08-05T04:08:34.689Z,97339.63
2022-08-05T04:11:04.745Z,97342.72
2022-08-05T04:13:49.813Z,97340.91
2022-08-05T04:16:25.508Z,97335.47
2022-08-05T04:19:00.042Z,97333.72
2022-08-05T04:22:10.401Z,97333.59
2022-08-05T04:24:19.107Z,97335.72
2022-08-05T04:26:46.989Z,97336.97
2022-08-05T04:29:14.284Z,97334.66
2022-08-05T04:31:41.564Z,97340.59
2022-08-05T04:34:31.668Z,97337.72
2022-08-05T04:36:58.704Z,97340.34
2022-08-05T04:39:27.571Z,97336.16
2022-08-05T04:41:55.435Z,97341.75
2022-08-05T04:44:29.455Z,97341.44
2022-08-05T04:46:58.367Z,97344.31
2022-08-05T04:50:02.133Z,97348.16
2022-08-05T04:52:14.577Z,97343.69
2022-08-05T04:54:42.313Z,97340.84
2022-08-05T04:57:09.497Z,97342.56
2022-08-05T04:59:38.788Z,97343.72
2022-08-05T05:02:36.432Z,97345.19
2022-08-05T05:05:02.202Z,97351.88
2022-08-05T05:07:35.357Z,97361.84
2022-08-05T05:10:03.359Z,97362.72
2022-08-05T05:12:30.501Z,97360.97
2022-08-05T05:14:57.684Z,97358.31
2022-08-05T05:17:56.949Z,97356.88
2022-08-05T05:20:13.366Z,97352.56
2022-08-05T05:22:44.180Z,97355.41
2022-08-05T05:25:16.854Z,97357.81
2022-08-05T05:27:53.677Z,97367.41
2022-08-05T05:30:29.624Z,97372.38
2022-08-05T05:33:03.526Z,97381.84
2022-08-05T05:35:38.120Z,97384.31
2022-08-05T05:38:12.869Z,97379.84
2022-08-05T05:40:49.511Z,97384.31
2022-08-05T05:43:22.315Z,97384.31
2022-08-05T05:46:09.508Z,97380.03
2022-08-05T05:48:41.218Z,97387.72
2022-08-05T05:51:15.596Z,97391.25
2022-08-05T05:53:46.118Z,97400.91
2022-08-05T05:56:32.917Z,97417.84
2022-08-05T05:59:05.198Z,97434.94
2022-08-05T06:01:37.417Z,97433.50
2022-08-05T06:04:07.636Z,97417.38
2022-08-05T06:06:35.661Z,97411.66
2022-08-05T06:09:05.590Z,97405.25
2022-08-05T06:11:35.396Z,97405.72
2022-08-05T06:14:06.739Z,97416.59
2022-08-05T06:16:37.139Z,97412.28
2022-08-05T06:19:07.596Z,97407.81
2022-08-05T06:21:37.533Z,97393.34
2022-08-05T06:24:12.004Z,97405.06
2022-08-05T06:26:40.214Z,97399.97
2022-08-05T06:29:43.216Z,97395.00
2022-08-05T06:32:26.263Z,97387.47
2022-08-05T06:34:56.292Z,97378.06
2022-08-05T06:37:39.384Z,97381.28
2022-08-05T06:40:21.065Z,97382.22
2022-08-05T06:42:52.370Z,97383.84
2022-08-05T06:46:02.899Z,97372.03
2022-08-05T06:48:36.626Z,97368.06
2022-08-05T06:50:56.303Z,97383.84
2022-08-05T06:53:27.814Z,97380.66
2022-08-05T06:55:57.480Z,97368.22
2022-08-05T06:58:35.113Z,97376.31
2022-08-05T07:01:05.527Z,97384.50
2022-08-05T07:03:33.638Z,97389.41
2022-08-05T07:06:05.886Z,97374.03
2022-08-05T07:08:41.912Z,97371.84
2022-08-05T07:11:15.250Z,97390.88
2022-08-05T07:13:58.734Z,97383.59
2022-08-05T07:17:56.451Z,97377.59
2022-08-05T07:19:16.066Z,97384.16
2022-08-05T07:22:02.631Z,97384.59
2022-08-05T07:24:30.033Z,97411.25
2022-08-05T07:26:58.595Z,97428.78
2022-08-05T07:30:25.575Z,97410.28
2022-08-05T07:32:14.621Z,97396.28
2022-08-05T07:34:42.570Z,97392.28
2022-08-05T07:40:26.785Z,97390.75
2022-08-05T07:49:25.274Z,97419.53
2022-08-05T07:51:55.183Z,97442.22
2022-08-05T07:54:26.605Z,97439.69
2022-08-05T07:57:13.758Z,97418.28
2022-08-05T07:59:46.979Z,97424.81
2022-08-05T08:02:17.621Z,97433.78
2022-08-05T08:15:15.456Z,97440.34
2022-08-05T08:17:49.867Z,97442.88
2022-08-05T08:20:43.507Z,97446.41
2022-08-05T08:23:11.654Z,97452.78
2022-08-05T08:26:00.163Z,97442.88
2022-08-05T08:28:36.510Z,97445.28
2022-08-05T08:31:16.457Z,97452.97
2022-08-05T08:33:45.711Z,97455.81
2022-08-05T08:36:38.197Z,97466.19
2022-08-05T08:39:01.673Z,97465.59
2022-08-05T08:41:50.668Z,97467.34
2022-08-05T08:45:16.308Z,97469.41
2022-08-05T08:47:47.590Z,97469.28
2022-08-05T08:50:07.600Z,97477.44
2022-08-05T08:52:53.647Z,97470.25
2022-08-05T08:56:02.077Z,97468.16
2022-08-05T08:58:10.070Z,97463.66
2022-08-05T09:00:41.223Z,97455.03
2022-08-05T09:03:10.632Z,97448.00
2022-08-05T09:05:38.719Z,97454.22
2022-08-05T09:08:26.625Z,97458.53
2022-08-05T09:10:54.828Z,97449.88
2022-08-05T09:13:23.473Z,97455.16
2022-08-05T09:15:51.060Z,97456.31
2022-08-05T09:18:19.834Z,97459.81
2022-08-05T09:20:46.994Z,97465.72
2022-08-05T09:23:18.754Z,97461.75
2022-08-05T09:26:01.558Z,97465.25
2022-08-05T09:28:33.827Z,97464.94
2022-08-05T09:31:23.193Z,97465.56
2022-08-05T09:33:55.176Z,97464.31
2022-08-05T09:36:27.372Z,97457.09
2022-08-05T09:39:00.105Z,97471.00
2022-08-05T09:41:32.913Z,97466.34
2022-08-05T09:44:05.362Z,97469.75
2022-08-05T09:46:35.035Z,97471.00
2022-08-05T09:49:06.798Z,97469.25
2022-08-05T09:51:36.586Z,97476.13
2022-08-05T09:54:05.063Z,97476.13
2022-08-05T09:56:33.877Z,97484.94
2022-08-05T09:59:03.211Z,97487.97
2022-08-05T10:01:33.046Z,97488.75
2022-08-05T10:04:02.023Z,97486.66
2022-08-05T10:06:32.880Z,97481.34
2022-08-05T10:09:25.063Z,97487.78
2022-08-05T10:12:30.833Z,97498.00
2022-08-05T10:14:54.470Z,97497.34
2022-08-05T10:17:37.935Z,97499.28
2022-08-05T10:20:10.067Z,97494.34
2022-08-05T10:22:42.963Z,97487.28
2022-08-05T10:25:19.577Z,97492.09
2022-08-05T10:28:13.681Z,97496.41
2022-08-05T10:31:20.053Z,97500.06
2022-08-05T10:33:28.847Z,97491.56
2022-08-05T10:35:59.159Z,97499.72
2022-08-05T10:38:33.097Z,97498.13
2022-08-05T10:41:12.409Z,97502.09
2022-08-05T10:43:50.210Z,97502.72
2022-08-05T10:46:19.162Z,97508.78
2022-08-05T10:48:59.752Z,97519.00
2022-08-05T10:51:53.099Z,97514.03
2022-08-05T10:54:47.252Z,97517.94
2022-08-05T10:57:31.737Z,97514.34
2022-08-05T11:00:18.609Z,97509.50
2022-08-05T11:03:23.229Z,97529.88
2022-08-05T11:06:16.055Z,97520.22
2022-08-05T11:09:32.437Z,97521.97
2022-08-05T11:12:41.229Z,97515.38
2022-08-05T11:15:20.314Z,97510.97
2022-08-05T11:17:58.827Z,97489.13
2022-08-05T11:20:38.977Z,97522.34
2022-08-05T11:23:33.430Z,97513.06
2022-08-05T11:26:28.610Z,97517.50
2022-08-05T11:29:11.573Z,97512.84
2022-08-05T11:31:57.004Z,97509.31
2022-08-05T11:34:39.419Z,97510.56
2022-08-05T11:38:28.888Z,97501.59
2022-08-05T11:40:00.465Z,97515.38
2022-08-05T11:42:32.779Z,97515.38
2022-08-05T11:45:14.364Z,97509.78
2022-08-05T11:47:55.182Z,97512.19
2022-08-05T11:50:22.681Z,97510.56
2022-08-05T11:52:53.195Z,97511.72
2022-08-05T11:55:32.031Z,97512.03
2022-08-05T11:58:09.151Z,97514.31
2022-08-05T12:00:39.105Z,97512.03
2022-08-05T12:03:29.086Z,97512.72
2022-08-05T12:06:05.902Z,97509.91
2022-08-05T12:08:50.036Z,97503.72
2022-08-05T12:11:21.061Z,97506.66
2022-08-05T12:13:58.672Z,97493.50
2022-08-05T12:16:28.937Z,97489.53
2022-08-05T12:18:57.814Z,97485.84
2022-08-05T12:21:29.832Z,97482.91
2022-08-05T12:24:04.806Z,97477.47
2022-08-05T12:26:35.338Z,97483.84
2022-08-05T12:29:03.209Z,97477.75
2022-08-05T12:31:33.499Z,97475.47
2022-08-05T12:34:20.730Z,97476.09
2022-08-05T12:36:50.676Z,97487.44
2022-08-05T12:39:18.509Z,97478.25
2022-08-05T12:41:46.103Z,97477.13
2022-08-05T12:44:28.649Z,97478.41
2022-08-05T12:47:02.243Z,97470.63
2022-08-05T12:50:04.748Z,97471.09
2022-08-05T12:52:33.941Z,97460.75
2022-08-05T12:55:16.907Z,97461.22
2022-08-05T12:58:48.950Z,97453.91
2022-08-05T13:02:04.266Z,97457.84
2022-08-05T13:03:18.448Z,97460.72
2022-08-05T13:05:48.404Z,97451.59
2022-08-05T13:08:18.632Z,97445.31
2022-08-05T13:10:50.291Z,97449.31
2022-08-05T13:14:05.862Z,97444.81
2022-08-05T13:16:12.953Z,97429.91
2022-08-05T13:18:51.151Z,97438.16
2022-08-05T13:21:19.712Z,97439.75
2022-08-05T13:23:50.854Z,97416.81
2022-08-05T13:26:22.877Z,97419.88
2022-08-05T13:28:57.483Z,97426.59
2022-08-05T13:31:33.916Z,97428.19
2022-08-05T13:34:25.529Z,97429.78
2022-08-05T13:36:54.657Z,97416.59
2022-08-05T13:40:13.099Z,97406.16
2022-08-05T13:42:14.585Z,97409.38
2022-08-05T13:44:45.519Z,97408.78
2022-08-05T13:47:35.694Z,97412.25
2022-08-05T13:50:04.423Z,97411.84
2022-08-05T13:52:35.629Z,97405.31
2022-08-05T13:55:07.763Z,97408.38
2022-08-05T13:57:51.331Z,97405.97
2022-08-05T14:00:27.241Z,97415.09
2022-08-05T14:02:56.046Z,97406.78
2022-08-05T14:05:29.479Z,97402.44
2022-08-05T14:08:21.283Z,97400.41
2022-08-05T14:11:03.157Z,97405.50
2022-08-05T14:13:42.580Z,97402.66
2022-08-05T14:16:11.259Z,97389.06
2022-08-05T14:18:38.924Z,97392.69
2022-08-05T14:22:07.505Z,97394.09
2022-08-05T14:23:54.780Z,97391.09
2022-08-05T14:26:38.531Z,97393.03
2022-08-05T14:29:16.300Z,97384.84
2022-08-05T14:32:02.883Z,97402.53
2022-08-05T14:34:35.081Z,97398.38
2022-08-05T14:37:03.547Z,97390.84
2022-08-05T14:39:49.793Z,97390.25
2022-08-05T14:42:21.725Z,97388.63
2022-08-05T14:44:49.239Z,97377.28
2022-08-05T14:47:16.427Z,97375.69
2022-08-05T14:50:18.311Z,97373.94
2022-08-05T14:52:57.767Z,97379.16
2022-08-05T14:55:38.400Z,97370.03
2022-08-05T14:58:10.628Z,97369.84
2022-08-05T15:00:39.454Z,97375.28
2022-08-05T15:03:26.301Z,97378.25
2022-08-05T15:06:07.877Z,97371.25
2022-08-05T15:08:58.483Z,97371.50
2022-08-05T15:11:52.365Z,97376.09
2022-08-05T15:14:33.548Z,97366.78
2022-08-05T15:17:04.180Z,97364.19
2022-08-05T15:19:31.968Z,97367.25
2022-08-05T15:21:59.974Z,97357.16
2022-08-05T15:24:27.431Z,97361.47
2022-08-05T15:26:57.033Z,97354.44
2022-08-05T15:29:29.725Z,97360.53
2022-08-05T15:32:03.291Z,97356.56
2022-08-05T15:34:33.546Z,97363.81
2022-08-05T15:37:05.087Z,97369.13
2022-08-05T15:41:04.618Z,97374.09
2022-08-05T15:42:53.631Z,97385.31
2022-08-05T15:45:10.001Z,97390.31
2022-08-05T15:47:37.381Z,97378.63
2022-08-05T15:50:07.501Z,97383.84
2022-08-05T15:52:53.542Z,97390.78
2022-08-05T15:55:24.460Z,97389.75
2022-08-05T15:57:53.739Z,97387.19
2022-08-05T16:00:26.237Z,97388.31
2022-08-05T16:03:10.418Z,97393.22
2022-08-05T16:05:39.012Z,97390.84
2022-08-05T16:08:06.331Z,97395.16
2022-08-05T16:10:33.483Z,97390.03
2022-08-05T16:13:02.004Z,97393.09
2022-08-05T16:15:32.714Z,97386.25
2022-08-05T16:18:01.197Z,97389.31
2022-08-05T16:20:31.573Z,97388.38
2022-08-05T16:22:59.684Z,97389.63
2022-08-05T16:25:32.284Z,97388.84
2022-08-05T16:28:06.104Z,97386.09
2022-08-05T16:30:34.144Z,97383.38
2022-08-05T16:33:01.645Z,97391.22
2022-08-05T16:35:32.046Z,97398.25
2022-08-05T16:38:02.756Z,97400.34
2022-08-05T16:40:51.655Z,97393.09
2022-08-05T16:43:24.144Z,97397.56
2022-08-05T16:46:04.125Z,97399.28
2022-08-05T16:48:36.993Z,97400.53
2022-08-05T16:51:09.709Z,97404.53
2022-08-05T16:54:03.914Z,97401.81
2022-08-05T16:56:26.445Z,97399.69
2022-08-05T16:58:56.029Z,97397.28
2022-08-05T17:01:24.632Z,97390.22
2022-08-05T17:03:52.159Z,97390.22
2022-08-05T17:06:19.497Z,97388.84
2022-08-05T17:08:53.611Z,97388.72
2022-08-05T17:11:23.871Z,97394.94
2022-08-05T17:14:00.476Z,97394.28
2022-08-05T17:16:36.742Z,97393.03
2022-08-05T17:19:07.750Z,97400.41
2022-08-05T17:21:39.392Z,97397.88
2022-08-05T17:24:28.307Z,97399.00
2022-08-05T17:26:55.745Z,97404.78
2022-08-05T17:29:33.111Z,97399.22
2022-08-05T17:32:11.851Z,97403.06
2022-08-05T17:34:44.922Z,97403.59
2022-08-05T17:37:39.288Z,97403.63
2022-08-05T17:40:02.901Z,97407.97
2022-08-05T17:42:32.293Z,97410.88
2022-08-05T17:45:00.558Z,97409.59
2022-08-05T17:47:39.122Z,97402.84
2022-08-05T17:50:10.972Z,97403.38
2022-08-05T17:52:53.344Z,97405.78
2022-08-05T17:55:22.580Z,97404.72
2022-08-05T17:57:54.704Z,97405.66
2022-08-05T18:00:21.861Z,97414.78
2022-08-05T18:02:58.142Z,97408.88
2022-08-05T18:05:28.111Z,97414.00
2022-08-05T18:08:02.345Z,97404.72
2022-08-05T18:10:33.558Z,97417.84
2022-08-05T18:13:01.972Z,97411.59
2022-08-05T18:15:35.009Z,97420.91
2022-08-05T18:18:10.912Z,97415.84
2022-08-05T18:20:38.727Z,97416.31
2022-08-05T18:23:11.230Z,97418.50
2022-08-05T18:25:39.592Z,97421.06
2022-08-05T18:28:12.540Z,97426.97
2022-08-05T18:30:44.121Z,97433.09
2022-08-05T18:33:13.456Z,97430.22
2022-08-05T18:36:01.333Z,97429.41
2022-08-05T18:38:29.133Z,97434.91
2022-08-05T18:41:56.412Z,97426.25
2022-08-05T18:43:49.155Z,97439.25
2022-08-05T18:46:20.211Z,97442.44
2022-08-05T18:48:52.042Z,97439.56
2022-08-05T18:52:04.881Z,97451.13
2022-08-05T18:54:07.510Z,97452.41
2022-08-05T18:56:36.119Z,97455.25
2022-08-05T18:59:42.029Z,97454.47
2022-08-05T19:01:57.075Z,97453.97
2022-08-05T19:04:27.106Z,97460.09
2022-08-05T19:06:54.273Z,97469.84
2022-08-05T19:09:21.715Z,97473.22
2022-08-05T19:12:00.362Z,97472.09
2022-08-05T19:14:59.466Z,97469.56
2022-08-05T19:17:16.612Z,97477.44
2022-08-05T19:19:48.454Z,97490.25
2022-08-05T19:22:22.767Z,97494.25
2022-08-05T19:24:56.379Z,97500.00
2022-08-05T19:27:24.546Z,97500.53
2022-08-05T19:29:57.442Z,97500.84
2022-08-05T19:32:26.109Z,97509.53
2022-08-05T19:34:56.600Z,97517.53
2022-08-05T19:37:30.034Z,97512.25
2022-08-05T19:40:12.932Z,97511.13
2022-08-05T19:42:42.282Z,97528.56
2022-08-05T19:45:28.332Z,97527.13
2022-08-05T19:48:00.400Z,97521.00
2022-08-05T19:50:28.870Z,97520.53
2022-08-05T19:52:56.971Z,97520.34
2022-08-05T19:56:14.237Z,97524.03
2022-08-05T19:58:29.484Z,97528.00
2022-08-05T20:00:57.788Z,97536.16
2022-08-05T20:03:25.378Z,97539.03
2022-08-05T20:05:54.801Z,97543.03
2022-08-05T20:08:24.459Z,97545.44
2022-08-05T20:10:52.231Z,97548.63
2022-08-05T20:13:30.228Z,97547.84
2022-08-05T20:16:06.990Z,97547.03
2022-08-05T20:18:36.133Z,97539.19
2022-08-05T20:21:06.722Z,97540.78
2022-08-05T20:23:40.122Z,97550.56
2022-08-05T20:26:18.674Z,97553.75
2022-08-05T20:28:46.988Z,97546.84
2022-08-05T20:31:14.309Z,97544.91
2022-08-05T20:33:44.913Z,97548.97
2022-08-05T20:36:14.266Z,97552.16
2022-08-05T20:38:54.563Z,97558.69
2022-08-05T20:41:27.335Z,97558.69
2022-08-05T20:44:17.222Z,97572.47
2022-08-05T20:46:47.036Z,97574.19
2022-08-05T20:49:14.598Z,97573.72
2022-08-05T20:51:47.028Z,97579.63
2022-08-05T20:54:21.153Z,97579.97
2022-08-05T20:56:48.964Z,97581.25
2022-08-05T20:59:19.313Z,97580.44
2022-08-05T21:01:54.529Z,97579.47
2022-08-05T21:04:27.051Z,97578.84
2022-08-05T21:06:55.974Z,97571.78
2022-08-05T21:09:23.300Z,97568.91
2022-08-05T21:12:07.703Z,97572.63
2022-08-05T21:14:37.811Z,97576.47
2022-08-05T21:17:05.936Z,97600.19
2022-08-05T21:19:47.502Z,97623.91
2022-08-05T21:22:18.687Z,97643.94
2022-08-05T21:24:52.045Z,97664.13
2022-08-05T21:27:20.549Z,97688.31
2022-08-05T21:29:52.037Z,97699.53
2022-08-05T21:32:21.187Z,97710.41
2022-08-05T21:35:06.726Z,97718.28
2022-08-05T21:37:41.201Z,97722.56
2022-08-05T21:40:13.195Z,97724.50
2022-08-05T21:42:45.112Z,97723.25
2022-08-05T21:45:12.984Z,97733.31
2022-08-05T21:47:56.254Z,97741.78
2022-08-05T21:50:25.249Z,97752.69
2022-08-05T21:52:53.891Z,97760.69
2022-08-05T21:56:00.822Z,97763.25
2022-08-05T21:58:13.454Z,97779.91
2022-08-05T22:00:40.785Z,97786.81
2022-08-05T22:03:18.175Z,97787.59
2022-08-05T22:06:05.487Z,97793.03
2022-08-05T22:08:34.443Z,97794.66
2022-08-05T22:11:01.626Z,97798.16
2022-08-05T22:14:05.665Z,97804.88
2022-08-05T22:16:42.116Z,97810.50
2022-08-05T22:19:03.273Z,97823.81
2022-08-05T22:21:43.516Z,97830.56
2022-08-05T22:24:12.916Z,97824.59
2022-08-05T22:26:40.636Z,97826.41
2022-08-05T22:29:07.983Z,97832.16
2022-08-05T22:31:44.327Z,97832.16
2022-08-05T22:34:12.864Z,97832.47
2022-08-05T22:36:48.193Z,97836.28
2022-08-05T22:39:16.886Z,97839.84
2022-08-05T22:42:11.717Z,97840.16
2022-08-05T22:44:35.909Z,97844.47
2022-08-05T22:47:04.989Z,97841.13
2022-08-05T22:50:21.847Z,97842.22
2022-08-05T22:52:30.319Z,97850.88
2022-08-05T22:55:19.466Z,97847.97
2022-08-05T22:57:49.130Z,97852.94
2022-08-05T23:00:17.973Z,97866.72
2022-08-05T23:02:48.464Z,97869.28
2022-08-05T23:05:16.383Z,97876.16
2022-08-05T23:07:45.344Z,97881.00
2022-08-05T23:10:19.640Z,97879.56
2022-08-05T23:12:51.158Z,97876.84
2022-08-05T23:15:21.263Z,97882.28
2022-08-05T23:18:00.903Z,97877.81
2022-08-05T23:20:31.493Z,97874.59
2022-08-05T23:22:59.909Z,97882.78
2022-08-05T23:25:53.008Z,97895.59
2022-08-05T23:28:17.249Z,97906.00
2022-08-05T23:30:53.583Z,97912.53
2022-08-05T23:33:26.459Z,97911.41
2022-08-05T23:36:10.505Z,97910.78
2022-08-05T23:38:37.871Z,97917.34
2022-08-05T23:41:06.458Z,97920.69
2022-08-05T23:44:04.797Z,97928.56
2022-08-05T23:46:22.136Z,97920.88
2022-08-05T23:49:00.608Z,97934.50
2022-08-05T23:51:31.045Z,97943.44
2022-08-05T23:54:01.542Z,97949.06
2022-08-05T23:56:30.118Z,97957.75
2022-08-05T23:58:58.712Z,97959.34
